• Join FlightAware (Why Join?)
  • Login
  • US Flag 
08:04AM EST


 

Airport Tracker/Info


-or-


 

Live Flight TrackerFlight Track Log ✈ JBU1853 ✈ 27-Oct-2013 ✈ KFLL - TJSJ / SJU

Flight Track Log - Related Links

Times and Time Zones

All times are in EDT time to prevent confusion due to time zone crossing. See the JBU1853 flight status page for this flight to view local times or setup timezone preferences in your user account.

Time Position Orientation Groundspeed Altitude Reporting Facility
EDT Latitude Longitude Course Direction KTS MPH feet Rate Location/Type
11:12PM 26.0750 -80.1389 122° Southeast 139 160 700  Level Miami Center
11:12PM 26.0753 -80.1275 88° East 146 168 1,300 1,769 Climbing Miami Center
11:13PM 26.0786 -80.0650 87° East 218 251 3,000 2,000 Climbing Miami Center
11:13PM 26.0833 -80.0397 78° East 210 242 3,900 2,475 Climbing Miami Center
11:14PM 26.0639 -79.9675 107° East 242 278 6,300 2,800 Climbing Miami Center
11:15PM 25.8431 -79.6625 99° East  Level Estimated
11:15PM 26.0281 -79.8856 116° Southeast 268 308 9,500  Level Miami Center
11:16PM 25.7855 -79.5402 98° East  Level Estimated
11:16PM 25.9881 -79.7944 116° Southeast 293 337 11,200  Level Miami Center
11:17PM 25.7278 -79.4181 122° Southeast  Level Estimated
11:17PM 25.9422 -79.6942 117° Southeast 330 380 13,700  Level Miami Center
11:18PM 25.8897 -79.5889 119° Southeast 367 422 16,000 2,300 Climbing Miami Center
11:19PM 25.8394 -79.4931 120° Southeast 394 453 18,300 2,168 Climbing Miami Center
11:20PM 25.7808 -79.3742 119° Southeast 402 463 20,300 1,934 Climbing Miami Center
11:21PM 25.7283 -79.2600 117° Southeast 410 472 22,200 1,750 Climbing Miami Center
11:22PM 25.6697 -79.1414 119° Southeast 424 488 23,800 1,438 Climbing Miami Center
11:23PM 25.6067 -79.0181 120° Southeast 440 506 25,100 1,268 Climbing Miami Center
11:24PM 25.5458 -78.8903 118° Southeast 455 524 26,400 1,373 Climbing Miami Center
11:25PM 25.4808 -78.7603 119° Southeast 468 539 27,800 1,220 Climbing Miami Center
11:26PM 25.4114 -78.6281 120° Southeast 482 555 28,800 1,289 Climbing Miami Center
11:27PM 25.3481 -78.4936 118° Southeast 482 555 30,400 1,377 Climbing Miami Center
11:28PM 25.2806 -78.3597 119° Southeast 487 560 31,600 1,210 Climbing Miami Center
11:29PM 25.2150 -78.2256 118° Southeast 487 560 32,800 718 Climbing Miami Center
11:30PM 25.1431 -78.0869 120° Southeast 499 574 33,000 99 Climbing Miami Center
11:31PM 25.0814 -77.9625 119° Southeast 504 580 33,000  Level Miami Center
11:32PM 25.0092 -77.8289 121° Southeast 510 587 33,000  Level Miami Center
11:33PM 24.9306 -77.6839 121° Southeast 510 587 33,000  Level Miami Center
11:34PM 24.8644 -77.5436 117° Southeast 510 587 33,000  Level Miami Center
11:35PM 24.7939 -77.4106 120° Southeast 505 581 33,000  Level Miami Center
11:36PM 24.7256 -77.2753 119° Southeast 505 581 33,000  Level Miami Center
11:37PM 24.6547 -77.1422 120° Southeast 505 581 33,000  Level Miami Center
11:38PM 24.5858 -77.0075 119° Southeast 505 581 33,000  Level Miami Center
11:39PM 24.5169 -76.8794 121° Southeast 505 581 33,000  Level Miami Center
11:40PM 24.4522 -76.7469 118° Southeast 500 575 33,000  Level Miami Center
11:41PM 24.3808 -76.6169 121° Southeast 495 570 33,000  Level Miami Center
11:42PM 24.3139 -76.4847 119° Southeast 495 570 33,000  Level Miami Center
11:43PM 24.2444 -76.3553 120° Southeast 495 570 33,000  Level Miami Center
11:44PM 24.1769 -76.2278 120° Southeast 489 563 33,000  Level Miami Center
11:45PM 24.1117 -76.1008 119° Southeast 489 563 33,000  Level Miami Center
11:46PM 24.0419 -75.9714 121° Southeast 489 563 33,000  Level Miami Center
11:47PM 23.9742 -75.8422 120° Southeast 489 563 33,000  Level Miami Center
11:48PM 23.9086 -75.7133 119° Southeast 489 563 33,000  Level Miami Center
11:49PM 23.8406 -75.5844 120° Southeast 489 563 33,000  Level Miami Center
11:50PM 23.7725 -75.4603 121° Southeast 489 563 33,000  Level Miami Center
11:51PM 23.7025 -75.3339 121° Southeast 484 557 33,000  Level Miami Center
11:52PM 23.6428 -75.2189 120° Southeast 484 557 33,000  Level Miami Center
11:53PM 23.5767 -75.0975 121° Southeast 484 557 33,000  Level Miami Center
11:54PM 23.5103 -74.9736 120° Southeast 484 557 33,000  Level Miami Center
11:55PM 23.4417 -74.8503 121° Southeast 478 550 33,000  Level Miami Center
11:56PM 23.3753 -74.7292 121° Southeast 471 542 33,000  Level Miami Center
11:57PM 23.3067 -74.6081 122° Southeast 466 536 33,000  Level Miami Center
11:58PM 23.2422 -74.4847 120° Southeast 466 536 33,000  Level Miami Center
11:59PM 23.1775 -74.3686 121° Southeast 461 531 33,000  Level Miami Center
12:00AM 23.1128 -74.2500 121° Southeast 461 531 33,000  Level Miami Center
12:01AM 23.0458 -74.1294 121° Southeast 461 531 33,000  Level Miami Center
12:02AM 22.9789 -74.0092 121° Southeast 461 531 33,000  Level Miami Center
12:03AM 22.9119 -73.8889 121° Southeast 461 531 33,000  Level Miami Center
12:04AM 22.8469 -73.7686 120° Southeast 461 531 33,000  Level Miami Center
12:05AM 22.7797 -73.6508 122° Southeast 461 531 33,000  Level Miami Center
12:06AM 22.7100 -73.5289 122° Southeast 467 537 33,000  Level Miami Center
12:07AM 22.6428 -73.4069 121° Southeast 467 537 33,000  Level Miami Center
12:08AM 22.5750 -73.2872 121° Southeast 467 537 33,000  Level Miami Center
12:09AM 22.5094 -73.1653 120° Southeast 467 537 33,000  Level Miami Center
12:10AM 22.4419 -73.0461 121° Southeast 461 531 33,000  Level Miami Center
12:11AM 22.3761 -72.9244 120° Southeast 467 537 33,000  Level Miami Center
12:12AM 22.3061 -72.8053 122° Southeast 467 537 33,000  Level Miami Center
12:13AM 22.2425 -72.6864 120° Southeast 467 537 33,000  Level Miami Center
12:14AM 22.1742 -72.5650 121° Southeast 462 532 33,000  Level Miami Center
12:15AM 22.1083 -72.4464 121° Southeast 462 532 33,000  Level Miami Center
12:16AM 22.0400 -72.3278 122° Southeast 467 537 33,000  Level Miami Center
12:17AM 21.9719 -72.2092 122° Southeast 467 537 33,000  Level Miami Center
12:18AM 21.9033 -72.0886 122° Southeast 467 537 33,000  Level Miami Center
12:19AM 21.8350 -71.9681 121° Southeast 467 537 33,000  Level Miami Center
12:20AM 21.7664 -71.8500 122° Southeast 467 537 33,000 -298 Level Miami Center
12:21AM 21.7000 -71.7342 122° Southeast 467 537 32,400 -769 Descending Miami Center
12:22AM 21.6314 -71.6164 122° Southeast 467 537 31,500 -706 Descending Miami Center
12:23AM 21.5647 -71.4986 121° Southeast 467 537 31,000 -246 Descending Miami Center
12:24AM 21.4958 -71.3833 123° Southeast 467 537 31,000  Level Miami Center
12:25AM 21.4269 -71.2658 122° Southeast 467 537 31,000  Level Miami Center
12:26AM 21.3533 -71.1397 122° Southeast 467 537 31,000  Level Miami Center
12:27AM 21.2797 -71.0094 121° Southeast 453 521 31,000  Level Miami Center
12:28AM 21.2128 -70.8944 122° Southeast 453 521 31,000  Level Miami Center
12:29AM 21.1414 -70.7753 123° Southeast 463 533 31,000  Level Miami Center
12:30AM 21.0742 -70.6583 122° Southeast 463 533 31,000  Level Miami Center
12:31AM 21.0047 -70.5417 123° Southeast 463 533 31,000  Level Miami Center
12:32AM 20.9353 -70.4228 122° Southeast 463 533 31,000  Level Miami Center
12:33AM 20.8639 -70.3086 124° Southeast 463 533 31,000  Level Miami Center
12:34AM 20.7961 -70.1900 121° Southeast 468 539 31,000  Level Miami Center
12:35AM 20.7267 -70.0739 123° Southeast 468 539 31,000  Level Miami Center
12:36AM 20.6569 -69.9600 123° Southeast 462 532 31,000  Level Miami Center
12:37AM 20.5892 -69.8439 122° Southeast 462 532 31,000  Level Miami Center
12:38AM 20.5217 -69.7325 123° Southeast 462 532 31,000  Level Miami Center
12:39AM 20.4497 -69.6169 124° Southeast 462 532 31,000  Level Miami Center
12:40AM 20.3839 -69.5011 121° Southeast 462 532 31,000  Level Miami Center
12:41AM 20.3119 -69.3900 125° Southeast 462 532 31,000  Level Miami Center
12:42AM 20.2458 -69.2744 121° Southeast 467 537 31,000  Level Miami Center
12:43AM 20.1739 -69.1639 125° Southeast 467 537 31,000  Level Miami Center
12:44AM 20.1119 -69.0461 119° Southeast 462 532 31,000  Level Miami Center
12:45AM 20.0456 -68.9308 121° Southeast 462 532 31,000  Level Miami Center
12:46AM 19.9794 -68.8181 122° Southeast 462 532 31,000  Level Miami Center
12:47AM 19.9072 -68.7056 124° Southeast 457 526 31,000  Level Miami Center
12:48AM 19.8386 -68.5908 122° Southeast 462 532 31,000  Level Miami Center
12:49AM 19.7856 -68.4886 119° Southeast 462 532 31,000  Level Miami Center
12:50AM 19.7128 -68.3742 124° Southeast 462 532 31,000  Level Miami Center
12:51AM 19.6483 -68.2617 121° Southeast 457 526 31,000  Level Miami Center
12:52AM 19.5778 -68.1497 124° Southeast 457 526 31,000 -151 Level Miami Center
12:53AM 19.5167 -68.0167 116° Southeast 450 518 30,700 -1,210 Descending San Juan Center
12:54AM 19.4500 -67.9000 121° Southeast 450 518 28,600 -1,983 Descending San Juan Center
12:55AM 19.3833 -67.8000 125° Southeast 440 506 26,700 -1,785 Descending San Juan Center
12:56AM 19.3167 -67.6833 121° Southeast 430 495 25,000 -1,850 Descending San Juan Center
12:57AM 19.2667 -67.5833 118° Southeast 410 472 23,000 -1,900 Descending San Juan Center
12:58AM 19.2000 -67.4833 125° Southeast 410 472 21,200 -1,700 Descending San Juan Center
12:59AM 19.1500 -67.3833 118° Southeast 400 460 19,600 -1,650 Descending San Juan Center
01:00AM 19.0833 -67.2833 125° Southeast 380 437 17,900 -1,636 Descending San Juan Center
01:01AM 19.0333 -67.2000 122° Southeast 380 437 16,300 -1,587 Descending San Juan Center
01:02AM 18.9833 -67.1000 118° Southeast 370 426 14,700 -1,500 Descending San Juan Center
01:03AM 18.9167 -67.0000 125° Southeast 340 391 13,300 -1,350 Descending San Juan Center
01:04AM 18.8667 -66.9333 128° Southeast 310 357 12,000 -1,300 Descending San Juan Center
01:05AM 18.8167 -66.8500 122° Southeast 300 345 10,700 -1,300 Descending San Juan Center
01:06AM 18.7833 -66.7833 118° Southeast 280 322 9,400 -1,150 Descending San Juan Center
01:07AM 18.7333 -66.7167 128° Southeast 280 322 8,400 -992 Descending San Juan Center
01:08AM 18.6833 -66.6500 128° Southeast 270 311 7,400 -942 Descending San Juan Center
01:09AM 18.6333 -66.5833 128° Southeast 270 311 6,500 -950 Descending San Juan Center
01:10AM 18.6000 -66.5167 118° Southeast 270 311 5,500 -950 Descending San Juan Center
01:11AM 18.5667 -66.4500 118° Southeast 250 288 4,600 -900 Descending San Juan Center
01:12AM 18.5333 -66.3833 118° Southeast 250 288 3,700 -800 Descending San Juan Center
01:13AM 18.5000 -66.3167 118° Southeast 250 288 3,000 -843 Descending San Juan Center
01:14AM 18.4667 -66.2667 125° Southeast 250 288 2,000 -500 Descending San Juan Center
01:15AM 18.4333 -66.2000 118° Southeast 210 242 2,000  Level San Juan Center
01:16AM 18.4333 -66.1500 90° East 180 207 2,000 -150 Level San Juan Center
01:17AM 18.4333 -66.1000 90° East 170 196 1,700 -496 Descending San Juan Center
01:18AM 18.4333 -66.0500 90° East 140 161 1,000 -645 Descending San Juan Center
01:19AM 18.4333 -66.0167 90° East 130 150 400 -600 Descending San Juan Center